Time;durP1;ratioP1;P1;durP2;ratioP2;P2;SDS_P1;SDS_P2;PMS_P1;PMS_P2;Temp;Humidity;BMP_temperature;BMP_pressure;BME280_temperature;BME280_humidity;BME280_pressure;Samples;Min_cycle;Max_cycle;Signal;HPM_P1;HPM_P2
2023/01/06 00:01:26;;;;;;;4.73;4.00;;;;;;;;;;5066677;28;20638;-79
2023/01/06 00:03:53;;;;;;;5.57;4.90;;;;;;;;;;5061976;28;20187;-80
2023/01/06 00:06:26;;;;;;;4.53;4.00;;;;;;;;;;5068073;28;20665;-77
2023/01/06 00:08:52;;;;;;;5.07;4.47;;;;;;;;;;5068583;28;20172;-79
2023/01/06 00:11:18;;;;;;;7.13;5.07;;;;;;;;;;5064056;28;20187;-80
2023/01/06 00:13:44;;;;;;;6.13;4.23;;;;;;;;;;5066889;28;20212;-82
2023/01/06 00:16:11;;;;;;;4.33;3.83;;;;;;;;;;5062815;28;20265;-80
2023/01/06 00:18:37;;;;;;;5.27;4.13;;;;;;;;;;5063482;28;20234;-81
2023/01/06 00:21:04;;;;;;;5.20;4.40;;;;;;;;;;5068132;28;20223;-80
2023/01/06 00:23:30;;;;;;;3.93;3.63;;;;;;;;;;5084735;28;20581;-80
2023/01/06 00:25:56;;;;;;;4.70;3.63;;;;;;;;;;5064780;28;20258;-81
2023/01/06 00:28:22;;;;;;;4.00;3.33;;;;;;;;;;5084091;28;20674;-81
2023/01/06 00:30:48;;;;;;;3.60;3.30;;;;;;;;;;5066336;28;20614;-81
2023/01/06 00:33:14;;;;;;;5.77;3.27;;;;;;;;;;5060800;28;20279;-81
2023/01/06 00:35:40;;;;;;;5.03;3.27;;;;;;;;;;5054034;28;20741;-81
2023/01/06 00:38:06;;;;;;;3.77;3.00;;;;;;;;;;5052407;28;20254;-80
2023/01/06 00:40:32;;;;;;;4.07;3.27;;;;;;;;;;5075729;28;20541;-81
2023/01/06 00:42:58;;;;;;;3.47;3.17;;;;;;;;;;5056483;28;20635;-81
2023/01/06 00:45:25;;;;;;;3.83;2.97;;;;;;;;;;5059034;28;20535;-82
2023/01/06 00:47:51;;;;;;;7.10;4.23;;;;;;;;;;5061085;28;20191;-76
2023/01/06 00:50:17;;;;;;;3.10;2.80;;;;;;;;;;5069343;28;20164;-82
2023/01/06 00:52:43;;;;;;;4.00;2.67;;;;;;;;;;5058548;28;20181;-82
2023/01/06 00:55:09;;;;;;;4.07;2.73;;;;;;;;;;5069985;28;20730;-79
2023/01/06 00:57:35;;;;;;;4.77;2.70;;;;;;;;;;5068923;28;20296;-78
2023/01/06 01:00:01;;;;;;;5.40;2.83;;;;;;;;;;5064943;28;20233;-80
2023/01/06 01:02:27;;;;;;;2.90;2.30;;;;;;;;;;5054380;28;20547;-79
2023/01/06 01:04:53;;;;;;;4.40;2.90;;;;;;;;;;5069618;28;20297;-80
2023/01/06 01:07:19;;;;;;;4.43;2.83;;;;;;;;;;5086284;28;20200;-79
2023/01/06 01:09:45;;;;;;;4.90;2.67;;;;;;;;;;5086361;28;20194;-80
2023/01/06 01:12:11;;;;;;;3.40;2.70;;;;;;;;;;5073567;28;20662;-81
2023/01/06 01:14:45;;;;;;;3.47;2.50;;;;;;;;;;5067407;28;20180;-81
2023/01/06 01:17:12;;;;;;;3.37;2.77;;;;;;;;;;5070240;28;20696;-79
2023/01/06 01:19:38;;;;;;;3.03;2.50;;;;;;;;;;5082335;28;20230;-79
2023/01/06 01:22:04;;;;;;;2.60;2.33;;;;;;;;;;5068420;28;20179;-78
2023/01/06 01:24:30;;;;;;;2.83;2.40;;;;;;;;;;5052833;28;20176;-80
2023/01/06 01:26:57;;;;;;;2.77;2.53;;;;;;;;;;5069441;28;20176;-78
2023/01/06 01:29:23;;;;;;;5.63;2.67;;;;;;;;;;5074025;28;20554;-81
2023/01/06 01:31:49;;;;;;;2.67;2.17;;;;;;;;;;5069051;28;20638;-80
2023/01/06 01:34:16;;;;;;;3.43;2.43;;;;;;;;;;5066438;28;20195;-79
2023/01/06 01:36:42;;;;;;;3.23;2.00;;;;;;;;;;5070587;28;20608;-78
2023/01/06 01:39:09;;;;;;;2.50;2.30;;;;;;;;;;5063608;28;20199;-79
2023/01/06 01:41:35;;;;;;;3.40;2.70;;;;;;;;;;5066247;28;20557;-78
2023/01/06 01:44:02;;;;;;;2.97;2.20;;;;;;;;;;5069973;28;20206;-80
2023/01/06 01:46:34;;;;;;;3.17;2.23;;;;;;;;;;5063778;28;20183;-81
2023/01/06 01:49:04;;;;;;;2.37;2.10;;;;;;;;;;5063611;28;20246;-79
2023/01/06 01:51:32;;;;;;;2.40;2.00;;;;;;;;;;5070428;28;20184;-78
2023/01/06 01:54:01;;;;;;;3.63;2.20;;;;;;;;;;5063809;28;20249;-79
2023/01/06 01:56:30;;;;;;;2.50;1.90;;;;;;;;;;5089118;28;20612;-80
2023/01/06 01:58:56;;;;;;;2.33;1.83;;;;;;;;;;5068950;28;20179;-80
2023/01/06 02:01:22;;;;;;;3.20;2.07;;;;;;;;;;5077405;28;20171;-80
2023/01/06 02:03:48;;;;;;;5.17;2.10;;;;;;;;;;5074012;28;20567;-80
2023/01/06 02:06:20;;;;;;;3.67;1.90;;;;;;;;;;5082726;28;20182;-80
2023/01/06 02:08:53;;;;;;;3.10;1.67;;;;;;;;;;5085278;28;20184;-82
2023/01/06 02:11:19;;;;;;;2.27;2.07;;;;;;;;;;5058844;28;20558;-80
2023/01/06 02:13:46;;;;;;;6.27;1.80;;;;;;;;;;5069429;28;20156;-80
2023/01/06 02:16:24;;;;;;;2.27;1.73;;;;;;;;;;5056177;28;20188;-79
2023/01/06 02:18:53;;;;;;;3.53;2.00;;;;;;;;;;5049529;28;20310;-81
2023/01/06 02:21:24;;;;;;;2.93;1.90;;;;;;;;;;5086308;28;20626;-79
2023/01/06 02:23:50;;;;;;;3.80;1.90;;;;;;;;;;5087069;28;20163;-82
2023/01/06 02:26:16;;;;;;;3.07;2.07;;;;;;;;;;5061184;28;20507;-80
2023/01/06 02:28:57;;;;;;;3.10;2.20;;;;;;;;;;5065074;28;20203;-80
2023/01/06 02:31:23;;;;;;;3.53;2.17;;;;;;;;;;5067164;28;20195;-79
2023/01/06 02:34:19;;;;;;;2.07;1.90;;;;;;;;;;5065390;28;20184;-80
2023/01/06 02:37:00;;;;;;;2.87;1.93;;;;;;;;;;5058860;28;20560;-80
2023/01/06 02:39:45;;;;;;;3.60;2.27;;;;;;;;;;5055571;28;20182;-80
2023/01/06 02:42:31;;;;;;;2.13;1.90;;;;;;;;;;5065509;28;20188;-81
2023/01/06 02:45:06;;;;;;;6.60;2.03;;;;;;;;;;5033714;28;20633;-80
2023/01/06 02:47:39;;;;;;;2.70;1.93;;;;;;;;;;5067944;28;20652;-79
2023/01/06 02:50:17;;;;;;;3.20;1.93;;;;;;;;;;5067600;28;20184;-79
2023/01/06 02:52:52;;;;;;;2.33;2.07;;;;;;;;;;5066535;28;20187;-81
2023/01/06 02:55:43;;;;;;;3.20;1.70;;;;;;;;;;5067130;28;20650;-79
2023/01/06 02:58:31;;;;;;;3.97;1.97;;;;;;;;;;5064380;28;20196;-78
2023/01/06 03:01:00;;;;;;;3.20;1.70;;;;;;;;;;5066952;28;20183;-79
2023/01/06 03:03:28;;;;;;;3.50;2.00;;;;;;;;;;5066558;28;20723;-79
2023/01/06 03:05:56;;;;;;;5.83;1.97;;;;;;;;;;5067530;28;20642;-78
2023/01/06 03:08:25;;;;;;;1.80;1.70;;;;;;;;;;5066156;28;20203;-78
2023/01/06 03:10:52;;;;;;;2.33;2.00;;;;;;;;;;5066117;28;20726;-79
2023/01/06 03:13:25;;;;;;;2.87;1.80;;;;;;;;;;5058357;28;20619;-79
2023/01/06 03:15:51;;;;;;;2.73;1.67;;;;;;;;;;5062110;28;20183;-83
2023/01/06 03:18:17;;;;;;;2.33;2.00;;;;;;;;;;5064464;28;20239;-80
2023/01/06 03:20:43;;;;;;;2.93;2.40;;;;;;;;;;5057425;28;20211;-83
2023/01/06 03:23:09;;;;;;;3.00;2.03;;;;;;;;;;5054614;28;20186;-80
2023/01/06 03:25:37;;;;;;;3.43;2.10;;;;;;;;;;5055680;28;20588;-78
2023/01/06 03:28:03;;;;;;;3.87;1.53;;;;;;;;;;5060753;28;20187;-78
2023/01/06 03:30:35;;;;;;;2.63;1.93;;;;;;;;;;5067363;28;20188;-77
2023/01/06 03:33:23;;;;;;;2.03;1.90;;;;;;;;;;5060803;28;20911;-79
2023/01/06 03:36:01;;;;;;;4.10;2.10;;;;;;;;;;5061400;28;20657;-77
2023/01/06 03:38:51;;;;;;;1.90;1.67;;;;;;;;;;5065466;28;20753;-79
2023/01/06 03:44:22;;;;;;;4.77;1.83;;;;;;;;;;5082643;28;20194;-78
2023/01/06 03:46:52;;;;;;;5.50;1.70;;;;;;;;;;5056273;28;20191;-80
2023/01/06 03:49:29;;;;;;;5.83;2.10;;;;;;;;;;5076963;28;20168;-80
2023/01/06 03:51:57;;;;;;;2.63;2.20;;;;;;;;;;5059894;28;20222;-79
2023/01/06 03:54:32;;;;;;;3.80;1.80;;;;;;;;;;5055441;28;20195;-81
2023/01/06 03:57:35;;;;;;;3.47;2.00;;;;;;;;;;5065810;28;20345;-77
2023/01/06 04:00:07;;;;;;;3.70;2.37;;;;;;;;;;5068803;28;20727;-81
2023/01/06 04:02:33;;;;;;;3.77;1.83;;;;;;;;;;5059500;28;20575;-79
2023/01/06 04:05:05;;;;;;;2.13;1.70;;;;;;;;;;5062603;28;20554;-80
2023/01/06 04:07:31;;;;;;;1.77;1.63;;;;;;;;;;5069417;28;20199;-81
2023/01/06 04:09:57;;;;;;;4.70;1.83;;;;;;;;;;5053409;28;20188;-79
2023/01/06 04:12:39;;;;;;;6.13;1.57;;;;;;;;;;5080407;28;20188;-79
2023/01/06 04:15:05;;;;;;;4.17;1.83;;;;;;;;;;5059573;28;20245;-79
2023/01/06 04:17:31;;;;;;;1.97;1.63;;;;;;;;;;5068730;28;20207;-79
2023/01/06 04:20:03;;;;;;;1.77;1.67;;;;;;;;;;5091637;28;20212;-80
2023/01/06 04:22:29;;;;;;;1.63;1.53;;;;;;;;;;5076637;28;20327;-81
2023/01/06 04:24:55;;;;;;;1.40;1.30;;;;;;;;;;5087473;28;20203;-79
2023/01/06 04:27:21;;;;;;;3.33;1.43;;;;;;;;;;5069255;28;20241;-80
2023/01/06 04:29:48;;;;;;;3.83;1.87;;;;;;;;;;5089579;28;20591;-80
2023/01/06 04:32:14;;;;;;;4.00;2.77;;;;;;;;;;5089144;28;20215;-78
2023/01/06 04:34:40;;;;;;;2.13;1.60;;;;;;;;;;5070065;28;20186;-79
2023/01/06 04:37:06;;;;;;;1.90;1.70;;;;;;;;;;5069107;28;20215;-80
2023/01/06 04:39:32;;;;;;;3.77;2.60;;;;;;;;;;5066507;28;20184;-80
2023/01/06 04:41:58;;;;;;;3.67;1.53;;;;;;;;;;5066096;28;20199;-78
2023/01/06 04:44:24;;;;;;;3.43;1.40;;;;;;;;;;5065723;28;20185;-79
2023/01/06 04:46:50;;;;;;;5.00;1.87;;;;;;;;;;5087850;28;20190;-80
2023/01/06 04:49:16;;;;;;;3.43;1.60;;;;;;;;;;5069604;28;20222;-80
2023/01/06 04:51:42;;;;;;;2.87;1.80;;;;;;;;;;5064921;28;20661;-80
2023/01/06 04:54:08;;;;;;;1.80;1.70;;;;;;;;;;5084933;28;20653;-78
2023/01/06 04:56:34;;;;;;;1.43;1.33;;;;;;;;;;5063214;28;20215;-81
2023/01/06 04:59:00;;;;;;;2.10;1.50;;;;;;;;;;5064950;28;20189;-79
2023/01/06 05:01:26;;;;;;;3.80;1.53;;;;;;;;;;5068214;28;20180;-80
2023/01/06 05:03:52;;;;;;;2.00;1.50;;;;;;;;;;5064337;28;20175;-80
2023/01/06 05:06:19;;;;;;;3.13;2.90;;;;;;;;;;5064572;28;20524;-80
2023/01/06 05:08:45;;;;;;;3.93;1.40;;;;;;;;;;5072437;28;20187;-78
2023/01/06 05:11:13;;;;;;;2.50;1.40;;;;;;;;;;5064887;28;20192;-80
2023/01/06 05:13:39;;;;;;;3.27;1.57;;;;;;;;;;5058561;28;20261;-77
2023/01/06 05:16:06;;;;;;;1.50;1.40;;;;;;;;;;5081961;28;20180;-79
2023/01/06 05:18:32;;;;;;;3.30;1.73;;;;;;;;;;5068828;28;20697;-82
2023/01/06 05:20:58;;;;;;;1.47;1.37;;;;;;;;;;5054308;28;20217;-78
2023/01/06 05:23:24;;;;;;;2.70;1.87;;;;;;;;;;5040669;28;20802;-83
2023/01/06 05:25:51;;;;;;;1.70;1.60;;;;;;;;;;5047419;28;20226;-79
2023/01/06 05:28:17;;;;;;;1.87;1.73;;;;;;;;;;5045043;28;20181;-78
2023/01/06 05:30:43;;;;;;;1.53;1.43;;;;;;;;;;5039273;28;20195;-77
2023/01/06 05:33:10;;;;;;;3.07;2.87;;;;;;;;;;5048764;28;20204;-78
2023/01/06 05:35:36;;;;;;;1.50;1.17;;;;;;;;;;5050113;28;20180;-79
2023/01/06 05:38:02;;;;;;;3.27;1.30;;;;;;;;;;5045707;28;20662;-79
2023/01/06 05:40:28;;;;;;;5.83;1.67;;;;;;;;;;5048265;28;20235;-78
2023/01/06 05:42:55;;;;;;;1.50;1.40;;;;;;;;;;5048250;28;20291;-78
2023/01/06 05:45:21;;;;;;;1.93;1.60;;;;;;;;;;5039141;28;20275;-80
2023/01/06 05:47:48;;;;;;;1.67;1.47;;;;;;;;;;5044581;28;20184;-79
2023/01/06 05:50:14;;;;;;;2.27;1.57;;;;;;;;;;5047220;28;20675;-78
2023/01/06 05:52:40;;;;;;;3.50;2.07;;;;;;;;;;5047880;28;20295;-78
2023/01/06 05:55:06;;;;;;;1.63;1.53;;;;;;;;;;5048681;28;20258;-80
2023/01/06 05:57:33;;;;;;;1.93;1.43;;;;;;;;;;5048791;28;20603;-79
2023/01/06 05:59:59;;;;;;;1.83;1.57;;;;;;;;;;5048396;28;20177;-80
2023/01/06 06:02:25;;;;;;;1.97;1.53;;;;;;;;;;5046240;28;20214;-79
2023/01/06 06:04:51;;;;;;;1.70;1.60;;;;;;;;;;5048666;28;20247;-81
2023/01/06 06:07:17;;;;;;;2.00;1.30;;;;;;;;;;5065311;28;20619;-78
2023/01/06 06:09:43;;;;;;;1.93;1.47;;;;;;;;;;5048305;28;20191;-79
2023/01/06 06:12:09;;;;;;;3.03;1.57;;;;;;;;;;5048289;28;20561;-83
2023/01/06 06:14:35;;;;;;;1.43;1.30;;;;;;;;;;5047299;28;20185;-78
2023/01/06 06:17:01;;;;;;;1.50;1.40;;;;;;;;;;5036816;28;20695;-80
2023/01/06 06:19:27;;;;;;;2.03;1.50;;;;;;;;;;5065320;28;20643;-78
2023/01/06 06:21:54;;;;;;;1.10;1.10;;;;;;;;;;5067097;28;20239;-79
2023/01/06 06:24:20;;;;;;;1.40;1.30;;;;;;;;;;5067556;28;20190;-80
2023/01/06 06:26:46;;;;;;;1.50;1.40;;;;;;;;;;5067011;28;20646;-79
2023/01/06 06:29:12;;;;;;;2.03;1.40;;;;;;;;;;5065111;28;20681;-82
2023/01/06 06:31:38;;;;;;;1.53;1.43;;;;;;;;;;5066063;28;20172;-81
2023/01/06 06:34:04;;;;;;;1.40;1.30;;;;;;;;;;5068559;28;20183;-78
2023/01/06 06:36:30;;;;;;;5.27;1.60;;;;;;;;;;5070636;28;20205;-79
2023/01/06 06:38:57;;;;;;;2.57;1.33;;;;;;;;;;5066315;28;20215;-80
2023/01/06 06:41:23;;;;;;;1.83;1.60;;;;;;;;;;5083993;28;20172;-79
2023/01/06 06:43:50;;;;;;;1.57;1.47;;;;;;;;;;5067254;28;20176;-78
2023/01/06 06:46:17;;;;;;;1.83;1.40;;;;;;;;;;5067805;28;20495;-80
2023/01/06 06:48:43;;;;;;;2.70;1.43;;;;;;;;;;5064872;28;20256;-78
2023/01/06 06:51:10;;;;;;;2.37;1.53;;;;;;;;;;5085558;28;20179;-82
2023/01/06 06:53:36;;;;;;;2.33;1.40;;;;;;;;;;5051527;28;20180;-81
2023/01/06 06:56:03;;;;;;;1.67;1.50;;;;;;;;;;5066634;28;20192;-80
2023/01/06 06:58:30;;;;;;;1.50;1.35;;;;;;;;;;5062506;28;20442;-82
2023/01/06 07:00:56;;;;;;;7.50;1.60;;;;;;;;;;5067544;28;20172;-78
2023/01/06 07:03:22;;;;;;;3.10;1.57;;;;;;;;;;5067150;28;20229;-79
2023/01/06 07:05:50;;;;;;;3.13;1.30;;;;;;;;;;5061601;28;20465;-81
2023/01/06 07:08:16;;;;;;;1.43;1.33;;;;;;;;;;5054968;28;20515;-80
2023/01/06 07:10:42;;;;;;;1.37;1.27;;;;;;;;;;5063486;28;20175;-79
2023/01/06 07:13:08;;;;;;;3.53;1.20;;;;;;;;;;5081719;28;20275;-80
2023/01/06 07:15:35;;;;;;;2.93;1.20;;;;;;;;;;5065852;28;20662;-78
2023/01/06 07:18:01;;;;;;;3.13;1.30;;;;;;;;;;5078531;28;20208;-82
2023/01/06 07:20:28;;;;;;;3.50;1.40;;;;;;;;;;5054989;28;20524;-81
2023/01/06 07:22:54;;;;;;;1.50;1.40;;;;;;;;;;5058831;28;20172;-79
2023/01/06 07:25:20;;;;;;;2.57;2.40;;;;;;;;;;5053482;28;20180;-77
2023/01/06 07:27:54;;;;;;;2.07;1.30;;;;;;;;;;5054403;28;20189;-79
2023/01/06 07:30:20;;;;;;;1.97;1.50;;;;;;;;;;5061156;28;20176;-79
2023/01/06 07:32:46;;;;;;;4.17;1.40;;;;;;;;;;5059581;28;20543;-78
2023/01/06 07:35:12;;;;;;;1.70;1.43;;;;;;;;;;5062064;28;20565;-80
2023/01/06 07:37:38;;;;;;;2.37;1.57;;;;;;;;;;5038920;28;20575;-79
2023/01/06 07:40:04;;;;;;;1.67;1.40;;;;;;;;;;5059946;28;20662;-79
2023/01/06 07:42:30;;;;;;;1.67;1.13;;;;;;;;;;5040230;28;20191;-80
2023/01/06 07:44:57;;;;;;;1.97;1.50;;;;;;;;;;5037617;28;20551;-77
2023/01/06 07:47:23;;;;;;;1.60;1.50;;;;;;;;;;5060946;28;20177;-79
2023/01/06 07:49:49;;;;;;;1.80;1.23;;;;;;;;;;5049232;28;20661;-78
2023/01/06 07:52:15;;;;;;;2.63;1.53;;;;;;;;;;5061617;28;20662;-79
2023/01/06 07:54:41;;;;;;;1.53;1.43;;;;;;;;;;5044135;28;20180;-78
2023/01/06 07:57:07;;;;;;;2.33;1.90;;;;;;;;;;5039508;28;20214;-79
2023/01/06 07:59:33;;;;;;;2.30;1.30;;;;;;;;;;5050085;28;20176;-78
2023/01/06 08:01:59;;;;;;;1.23;1.13;;;;;;;;;;5060890;28;20173;-80
2023/01/06 08:04:25;;;;;;;3.87;1.97;;;;;;;;;;5045861;28;20181;-79
2023/01/06 08:06:51;;;;;;;1.30;1.20;;;;;;;;;;5035547;28;20187;-81
2023/01/06 08:09:17;;;;;;;1.23;1.20;;;;;;;;;;5040622;28;20227;-80
2023/01/06 08:11:43;;;;;;;1.33;1.23;;;;;;;;;;5055329;28;20252;-81
2023/01/06 08:14:15;;;;;;;1.40;1.30;;;;;;;;;;5043463;28;20295;-80
2023/01/06 08:16:41;;;;;;;2.73;1.43;;;;;;;;;;5036389;28;20181;-80
2023/01/06 08:19:07;;;;;;;1.97;1.20;;;;;;;;;;5058967;28;20204;-80
2023/01/06 08:21:33;;;;;;;1.30;1.20;;;;;;;;;;5051272;28;20898;-79
2023/01/06 08:23:59;;;;;;;1.40;1.30;;;;;;;;;;5047578;28;20180;-82
2023/01/06 08:26:25;;;;;;;2.17;1.97;;;;;;;;;;5044500;28;20183;-80
2023/01/06 08:28:52;;;;;;;1.30;1.20;;;;;;;;;;5042409;28;20264;-80
2023/01/06 08:31:19;;;;;;;1.30;1.20;;;;;;;;;;5045631;28;20184;-81
2023/01/06 08:33:45;;;;;;;3.30;1.30;;;;;;;;;;5048089;28;20288;-81
2023/01/06 08:36:13;;;;;;;1.23;1.20;;;;;;;;;;5066421;28;20274;-81
2023/01/06 08:38:39;;;;;;;3.43;1.43;;;;;;;;;;5042971;28;20647;-81
2023/01/06 08:41:05;;;;;;;1.07;1.07;;;;;;;;;;5042777;28;20181;-81
2023/01/06 08:43:31;;;;;;;2.60;1.40;;;;;;;;;;5046651;28;20272;-80
2023/01/06 08:46:01;;;;;;;4.93;1.50;;;;;;;;;;5039030;28;20636;-82
2023/01/06 08:48:28;;;;;;;2.13;1.30;;;;;;;;;;5063172;28;20188;-82
2023/01/06 08:50:55;;;;;;;1.67;1.57;;;;;;;;;;5032147;28;20184;-80
2023/01/06 08:53:21;;;;;;;1.60;1.50;;;;;;;;;;5041584;28;20722;-81
2023/01/06 08:55:48;;;;;;;1.50;1.40;;;;;;;;;;5043756;28;20407;-82
2023/01/06 08:58:14;;;;;;;1.60;1.10;;;;;;;;;;5041863;28;20212;-82
2023/01/06 09:00:42;;;;;;;1.67;1.40;;;;;;;;;;5059907;28;20933;-81
2023/01/06 09:03:08;;;;;;;1.97;1.50;;;;;;;;;;5040253;28;20940;-78
2023/01/06 09:05:34;;;;;;;1.40;1.30;;;;;;;;;;5043785;28;20271;-79
2023/01/06 09:08:00;;;;;;;1.53;1.43;;;;;;;;;;5045383;28;20222;-81
2023/01/06 09:10:26;;;;;;;1.50;1.40;;;;;;;;;;5042443;28;20183;-81
2023/01/06 09:12:52;;;;;;;1.30;1.27;;;;;;;;;;5060722;28;20177;-79
2023/01/06 09:15:18;;;;;;;1.67;1.40;;;;;;;;;;5047725;28;20657;-80
2023/01/06 09:17:44;;;;;;;1.33;1.23;;;;;;;;;;5048987;28;20605;-80
2023/01/06 09:20:10;;;;;;;1.67;1.47;;;;;;;;;;5051464;28;20507;-81
2023/01/06 09:22:36;;;;;;;1.43;1.33;;;;;;;;;;5053400;28;20713;-79
2023/01/06 09:25:03;;;;;;;1.40;1.30;;;;;;;;;;5062656;28;20181;-80
2023/01/06 09:27:29;;;;;;;1.37;1.27;;;;;;;;;;5081666;28;20210;-79
2023/01/06 09:29:55;;;;;;;1.50;1.40;;;;;;;;;;5065348;28;20328;-77
2023/01/06 09:32:21;;;;;;;1.20;1.20;;;;;;;;;;5069525;28;20630;-79
2023/01/06 09:34:47;;;;;;;1.60;1.50;;;;;;;;;;5052340;28;20280;-79
2023/01/06 09:37:13;;;;;;;1.63;1.50;;;;;;;;;;5068267;28;20677;-80
2023/01/06 09:39:39;;;;;;;2.33;1.60;;;;;;;;;;5068255;28;20647;-81
2023/01/06 09:42:18;;;;;;;2.23;1.30;;;;;;;;;;5082435;28;20187;-81
2023/01/06 09:44:48;;;;;;;2.10;1.63;;;;;;;;;;5069589;28;20195;-81
2023/01/06 09:47:15;;;;;;;1.50;1.40;;;;;;;;;;5065528;28;20237;-79
2023/01/06 09:49:41;;;;;;;2.13;1.40;;;;;;;;;;5064824;28;20184;-78
2023/01/06 09:52:23;;;;;;;1.80;1.70;;;;;;;;;;5066944;28;20194;-89
2023/01/06 09:54:58;;;;;;;1.50;1.40;;;;;;;;;;5060159;28;20575;-90
2023/01/06 09:57:33;;;;;;;1.70;1.50;;;;;;;;;;5059252;28;20933;-82
2023/01/06 10:00:01;;;;;;;1.57;1.47;;;;;;;;;;5055986;28;20677;-78
2023/01/06 10:02:37;;;;;;;1.57;1.47;;;;;;;;;;5071453;28;20249;-79
2023/01/06 10:05:19;;;;;;;1.80;1.50;;;;;;;;;;5062409;28;20175;-77
2023/01/06 10:07:56;;;;;;;1.60;1.50;;;;;;;;;;5060365;28;20581;-79
2023/01/06 10:10:42;;;;;;;1.83;1.53;;;;;;;;;;5073102;28;20179;-78
2023/01/06 10:13:29;;;;;;;1.77;1.67;;;;;;;;;;5074399;28;20184;-78
2023/01/06 10:16:18;;;;;;;1.93;1.40;;;;;;;;;;5076278;28;20192;-78
2023/01/06 10:19:08;;;;;;;1.80;1.50;;;;;;;;;;5083380;28;20211;-79
2023/01/06 10:21:44;;;;;;;1.70;1.60;;;;;;;;;;5075364;28;20376;-78
2023/01/06 10:24:13;;;;;;;1.70;1.60;;;;;;;;;;5057484;28;20183;-77
2023/01/06 10:26:43;;;;;;;2.23;1.83;;;;;;;;;;5069293;28;20175;-76
2023/01/06 10:29:14;;;;;;;1.60;1.50;;;;;;;;;;5053374;28;20180;-84
2023/01/06 10:31:42;;;;;;;1.83;1.63;;;;;;;;;;5052594;28;20609;-78
2023/01/06 10:34:25;;;;;;;1.53;1.43;;;;;;;;;;5062745;28;20195;-80
2023/01/06 10:36:57;;;;;;;1.93;1.80;;;;;;;;;;5061259;28;20183;-78
2023/01/06 10:39:25;;;;;;;1.70;1.57;;;;;;;;;;5061524;28;20275;-78
2023/01/06 10:44:55;;;;;;;3.23;1.37;;;;;;;;;;5072975;28;20190;-81
2023/01/06 10:47:27;;;;;;;2.63;1.60;;;;;;;;;;5055666;28;20179;-78
2023/01/06 10:49:53;;;;;;;1.90;1.80;;;;;;;;;;5057123;28;20926;-78
2023/01/06 10:52:21;;;;;;;2.30;2.10;;;;;;;;;;5076879;28;20503;-80
2023/01/06 10:54:48;;;;;;;1.70;1.60;;;;;;;;;;5057621;28;20191;-79
2023/01/06 10:57:23;;;;;;;1.70;1.60;;;;;;;;;;5061498;28;20697;-79
2023/01/06 11:00:08;;;;;;;2.20;1.60;;;;;;;;;;5062368;28;20675;-77
2023/01/06 11:02:34;;;;;;;1.70;1.60;;;;;;;;;;5065288;28;20780;-78
2023/01/06 11:05:01;;;;;;;1.73;1.63;;;;;;;;;;5064850;28;20611;-79
2023/01/06 11:07:28;;;;;;;1.67;1.57;;;;;;;;;;5073219;28;20252;-79
2023/01/06 11:09:54;;;;;;;3.43;1.77;;;;;;;;;;5079689;28;20734;-78
2023/01/06 11:12:24;;;;;;;3.63;1.80;;;;;;;;;;5060457;28;20283;-79
2023/01/06 11:15:01;;;;;;;3.87;2.03;;;;;;;;;;5052358;28;20607;-78
2023/01/06 11:17:28;;;;;;;1.87;1.77;;;;;;;;;;5056359;28;20224;-77
2023/01/06 11:20:06;;;;;;;1.80;1.70;;;;;;;;;;5062087;28;20599;-78
2023/01/06 11:22:40;;;;;;;2.50;2.30;;;;;;;;;;5058879;28;20219;-77
2023/01/06 11:25:20;;;;;;;2.00;1.90;;;;;;;;;;5084394;28;20191;-79
2023/01/06 11:27:47;;;;;;;2.00;1.90;;;;;;;;;;5064469;28;20580;-79
2023/01/06 11:30:21;;;;;;;2.10;1.90;;;;;;;;;;5054323;28;20204;-80
2023/01/06 11:32:47;;;;;;;2.10;1.90;;;;;;;;;;5056877;28;20176;-78
2023/01/06 11:35:19;;;;;;;2.10;2.00;;;;;;;;;;5062836;28;20188;-76
2023/01/06 11:37:45;;;;;;;2.60;2.37;;;;;;;;;;5071845;28;20519;-79
2023/01/06 11:40:20;;;;;;;2.30;2.10;;;;;;;;;;5061379;28;20282;-79
2023/01/06 11:42:52;;;;;;;2.73;2.53;;;;;;;;;;5065559;28;20175;-79
2023/01/06 11:45:33;;;;;;;2.07;1.97;;;;;;;;;;5050830;28;20194;-79
2023/01/06 11:48:00;;;;;;;3.00;2.70;;;;;;;;;;5062694;28;20180;-79
2023/01/06 11:50:26;;;;;;;2.83;2.53;;;;;;;;;;5058227;28;20489;-82
2023/01/06 11:53:03;;;;;;;3.00;2.40;;;;;;;;;;5071137;28;20184;-79
2023/01/06 11:55:29;;;;;;;2.97;2.63;;;;;;;;;;5057152;28;20551;-79
2023/01/06 11:57:56;;;;;;;3.07;2.77;;;;;;;;;;5062643;28;20204;-78
2023/01/06 12:00:31;;;;;;;2.90;2.60;;;;;;;;;;5064525;28;20186;-79
2023/01/06 12:03:20;;;;;;;4.27;2.70;;;;;;;;;;5082355;28;20650;-78
2023/01/06 12:05:50;;;;;;;4.63;2.60;;;;;;;;;;5048800;28;20853;-79
2023/01/06 12:08:20;;;;;;;2.77;2.57;;;;;;;;;;5065302;28;20218;-80
2023/01/06 12:10:48;;;;;;;3.20;2.53;;;;;;;;;;5064907;28;20377;-77
2023/01/06 12:13:14;;;;;;;3.63;2.90;;;;;;;;;;5054239;28;20192;-79
2023/01/06 12:15:42;;;;;;;3.23;2.87;;;;;;;;;;5081603;28;20168;-78
2023/01/06 12:18:13;;;;;;;4.30;3.60;;;;;;;;;;5079188;28;20330;-79
2023/01/06 12:20:41;;;;;;;3.30;2.97;;;;;;;;;;5072096;28;20223;-77
2023/01/06 12:23:12;;;;;;;3.20;2.90;;;;;;;;;;5081144;28;20426;-79
2023/01/06 12:25:44;;;;;;;3.80;2.93;;;;;;;;;;5067188;28;20176;-79
2023/01/06 12:28:19;;;;;;;4.63;3.07;;;;;;;;;;5060189;28;20231;-80
2023/01/06 12:30:53;;;;;;;3.50;3.20;;;;;;;;;;5066848;28;20175;-78
2023/01/06 12:33:22;;;;;;;3.97;3.30;;;;;;;;;;5064818;28;20184;-79
2023/01/06 12:35:49;;;;;;;3.23;2.93;;;;;;;;;;5059499;28;20619;-77
2023/01/06 12:38:36;;;;;;;3.87;3.43;;;;;;;;;;5084182;28;20203;-80
2023/01/06 12:41:05;;;;;;;3.43;3.13;;;;;;;;;;5054230;28;20254;-78
2023/01/06 12:43:32;;;;;;;3.27;2.80;;;;;;;;;;5062273;28;20187;-79
2023/01/06 12:46:04;;;;;;;4.40;2.90;;;;;;;;;;5063275;28;20187;-79
2023/01/06 12:48:33;;;;;;;3.40;3.00;;;;;;;;;;5058252;28;20180;-79
2023/01/06 12:51:00;;;;;;;3.00;2.50;;;;;;;;;;5061387;28;20191;-80
2023/01/06 12:53:28;;;;;;;3.30;3.00;;;;;;;;;;5058994;28;20240;-79
2023/01/06 12:56:13;;;;;;;3.00;2.80;;;;;;;;;;5060989;28;20534;-78
2023/01/06 12:58:46;;;;;;;2.97;2.77;;;;;;;;;;5056707;28;20212;-78
2023/01/06 13:01:32;;;;;;;3.80;3.43;;;;;;;;;;5068308;28;20275;-82
2023/01/06 13:04:09;;;;;;;2.90;2.70;;;;;;;;;;5057739;28;20541;-78
2023/01/06 13:06:42;;;;;;;2.93;2.70;;;;;;;;;;5054189;28;20192;-77
2023/01/06 13:09:24;;;;;;;12.80;2.60;;;;;;;;;;5067138;28;20679;-78
2023/01/06 13:11:50;;;;;;;3.00;2.60;;;;;;;;;;5068569;28;20537;-77
2023/01/06 13:14:26;;;;;;;3.23;2.33;;;;;;;;;;5058862;28;20285;-77
2023/01/06 13:16:52;;;;;;;2.40;2.20;;;;;;;;;;5061307;28;20184;-80
2023/01/06 13:19:18;;;;;;;2.70;2.47;;;;;;;;;;5054713;28;20208;-78
2023/01/06 13:21:45;;;;;;;3.47;2.70;;;;;;;;;;5066827;28;20768;-81
2023/01/06 13:24:20;;;;;;;2.50;2.30;;;;;;;;;;5064399;28;20767;-78
2023/01/06 13:27:03;;;;;;;2.57;2.37;;;;;;;;;;5066409;28;20246;-79
2023/01/06 13:29:37;;;;;;;3.20;2.30;;;;;;;;;;5066926;28;20198;-78
2023/01/06 13:32:22;;;;;;;3.83;2.20;;;;;;;;;;5067127;28;20778;-80
2023/01/06 13:35:00;;;;;;;4.00;2.23;;;;;;;;;;5066018;28;20720;-80
2023/01/06 13:37:34;;;;;;;2.33;2.13;;;;;;;;;;5054874;28;20713;-79
2023/01/06 13:40:02;;;;;;;3.17;2.50;;;;;;;;;;5066084;28;20223;-80
2023/01/06 13:42:34;;;;;;;2.20;2.10;;;;;;;;;;5057797;28;20183;-85
2023/01/06 13:45:01;;;;;;;2.47;2.27;;;;;;;;;;5071030;28;20271;-87
2023/01/06 13:47:27;;;;;;;2.53;2.00;;;;;;;;;;5069768;28;20660;-86
2023/01/06 13:49:53;;;;;;;2.30;2.10;;;;;;;;;;5054452;28;20188;-86
2023/01/06 13:52:22;;;;;;;2.27;2.10;;;;;;;;;;5059828;28;20193;-88
2023/01/06 13:54:49;;;;;;;1.90;1.80;;;;;;;;;;5081094;28;20187;-85
2023/01/06 13:57:21;;;;;;;2.10;2.00;;;;;;;;;;5080094;28;20176;-86
2023/01/06 13:59:51;;;;;;;3.47;2.00;;;;;;;;;;5082807;28;20168;-85
2023/01/06 14:02:33;;;;;;;2.03;1.80;;;;;;;;;;5076195;28;20271;-85
2023/01/06 14:05:00;;;;;;;2.37;2.17;;;;;;;;;;5068780;28;20191;-86
2023/01/06 14:07:50;;;;;;;2.00;1.90;;;;;;;;;;5069240;28;20172;-84
2023/01/06 14:10:31;;;;;;;2.00;1.90;;;;;;;;;;5054665;28;20262;-87
2023/01/06 14:12:58;;;;;;;2.00;1.90;;;;;;;;;;5067211;28;20184;-87
2023/01/06 14:15:31;;;;;;;2.73;2.00;;;;;;;;;;5065769;28;20223;-88
2023/01/06 14:17:58;;;;;;;2.00;1.83;;;;;;;;;;5061630;28;20207;-87
2023/01/06 14:20:30;;;;;;;1.93;1.83;;;;;;;;;;5075797;28;20180;-86
2023/01/06 14:22:59;;;;;;;1.93;1.83;;;;;;;;;;5055006;28;20303;-85
2023/01/06 14:25:26;;;;;;;2.27;2.07;;;;;;;;;;5066292;28;20221;-85
2023/01/06 14:27:52;;;;;;;2.33;2.13;;;;;;;;;;5061806;28;20765;-86
2023/01/06 14:30:20;;;;;;;2.70;2.50;;;;;;;;;;5078913;28;20180;-86
2023/01/06 14:32:46;;;;;;;2.40;2.20;;;;;;;;;;5057501;28;20193;-85
2023/01/06 14:35:14;;;;;;;2.57;2.37;;;;;;;;;;5057344;28;20181;-88
2023/01/06 14:37:49;;;;;;;2.70;2.50;;;;;;;;;;5055570;28;20223;-88
2023/01/06 14:40:24;;;;;;;3.83;2.67;;;;;;;;;;5073779;28;20175;-84
2023/01/06 14:42:50;;;;;;;2.80;2.60;;;;;;;;;;5076416;28;21304;-85
2023/01/06 14:45:19;;;;;;;3.00;2.80;;;;;;;;;;5059703;28;20180;-82
2023/01/06 14:47:50;;;;;;;3.40;3.00;;;;;;;;;;5057790;28;20195;-82
2023/01/06 14:50:19;;;;;;;3.77;2.80;;;;;;;;;;5058243;28;20199;-84
2023/01/06 14:52:50;;;;;;;3.20;2.90;;;;;;;;;;5056401;28;20232;-87
2023/01/06 14:55:17;;;;;;;3.00;2.80;;;;;;;;;;5059141;28;20638;-84
2023/01/06 14:57:43;;;;;;;2.60;2.40;;;;;;;;;;5053748;28;20218;-84
2023/01/06 15:00:19;;;;;;;3.57;3.27;;;;;;;;;;5058888;28;20241;-86
2023/01/06 15:02:47;;;;;;;3.33;2.80;;;;;;;;;;5063216;28;20547;-86